MSR758 HECA-EDDF
Flight info
| Callsign | MSR758 |
|---|---|
| Flight time | N/A |
| Altitude | 34000 |
| Route | DCT MENKU L617 NOZ L551 ANTAR DCT RIGRO DCT FSK/N0448F360 UL608 DISOR DCT LONTA UL608 DOLEV DCT LURID DCT ZAG DCT BEDOX DCT SIMBA DCT AKINI T161 DEBHI |
| Aircraft | A21N/M-V/N |
Departure
| Time | 2026-04-29 10:21 |
|---|---|
| Airport | Cairo International Airport (HECA) |
Arrival
| Time | N/A |
|---|---|
| Airport | Frankfurt Main Airport (EDDF) |
| Time | Latitude | Longitude | Altitude | Speed | Heading |
|---|---|---|---|---|---|
| 2026-04-29 09:29 | 30.11217 | 31.40213 | 368 ft | 0 kts | 197° |
| 2026-04-29 10:08 | 30.11231 | 31.40218 | 370 ft | 3 kts | 193° |
| 2026-04-29 10:09 | 30.11254 | 31.40222 | 367 ft | 3 kts | 184° |
| 2026-04-29 10:09 | 30.11276 | 31.40222 | 368 ft | 3 kts | 172° |
| 2026-04-29 10:09 | 30.11297 | 31.40216 | 369 ft | 3 kts | 152° |
| 2026-04-29 10:09 | 30.11313 | 31.40201 | 371 ft | 3 kts | 115° |
| 2026-04-29 10:10 | 30.11315 | 31.40195 | 368 ft | 1 kts | 106° |
| 2026-04-29 10:13 | 30.11315 | 31.40198 | 371 ft | 1 kts | 106° |
| 2026-04-29 10:14 | 30.11310 | 31.40217 | 371 ft | 4 kts | 106° |
| 2026-04-29 10:14 | 30.11300 | 31.40252 | 367 ft | 6 kts | 108° |
| 2026-04-29 10:14 | 30.11286 | 31.40303 | 368 ft | 8 kts | 107° |
| 2026-04-29 10:14 | 30.11274 | 31.40366 | 367 ft | 9 kts | 81° |
| 2026-04-29 10:15 | 30.11296 | 31.40434 | 370 ft | 10 kts | 97° |
| 2026-04-29 10:15 | 30.11250 | 31.40496 | 372 ft | 11 kts | 139° |
| 2026-04-29 10:15 | 30.11186 | 31.40561 | 372 ft | 13 kts | 139° |
| 2026-04-29 10:15 | 30.11114 | 31.40631 | 379 ft | 12 kts | 140° |
| 2026-04-29 10:16 | 30.11074 | 31.40670 | 383 ft | 7 kts | 141° |
| 2026-04-29 10:16 | 30.11038 | 31.40682 | 385 ft | 9 kts | 194° |
| 2026-04-29 10:16 | 30.10966 | 31.40606 | 384 ft | 11 kts | 229° |
| 2026-04-29 10:16 | 30.10913 | 31.40536 | 384 ft | 12 kts | 229° |
| 2026-04-29 10:17 | 30.10854 | 31.40457 | 385 ft | 14 kts | 229° |
| 2026-04-29 10:17 | 30.10788 | 31.40370 | 388 ft | 15 kts | 229° |
| 2026-04-29 10:17 | 30.10717 | 31.40275 | 392 ft | 16 kts | 229° |
| 2026-04-29 10:17 | 30.10641 | 31.40174 | 389 ft | 17 kts | 229° |
| 2026-04-29 10:18 | 30.10564 | 31.40070 | 384 ft | 17 kts | 229° |
| 2026-04-29 10:18 | 30.10485 | 31.39966 | 385 ft | 18 kts | 228° |
| 2026-04-29 10:18 | 30.10403 | 31.39855 | 385 ft | 18 kts | 231° |
| 2026-04-29 10:18 | 30.10318 | 31.39739 | 389 ft | 19 kts | 229° |
| 2026-04-29 10:19 | 30.10227 | 31.39620 | 393 ft | 19 kts | 229° |
| 2026-04-29 10:19 | 30.10160 | 31.39565 | 392 ft | 11 kts | 188° |
| 2026-04-29 10:19 | 30.10093 | 31.39611 | 393 ft | 12 kts | 138° |
| 2026-04-29 10:19 | 30.10029 | 31.39680 | 394 ft | 13 kts | 131° |
| 2026-04-29 10:20 | 30.09998 | 31.39778 | 394 ft | 14 kts | 88° |
| 2026-04-29 10:20 | 30.10020 | 31.39890 | 392 ft | 15 kts | 62° |
| 2026-04-29 10:20 | 30.10097 | 31.40004 | 392 ft | 31 kts | 49° |
| 2026-04-29 10:20 | 30.10409 | 31.40417 | 394 ft | 103 kts | 48° |
| 2026-04-29 10:21 | 30.11016 | 31.41228 | 393 ft | 160 kts | 49° |
| 2026-04-29 10:21 | 30.11848 | 31.42267 | 648 ft | 181 kts | 45° |
| 2026-04-29 10:21 | 30.12712 | 31.43315 | 1331 ft | 177 kts | 36° |
| 2026-04-29 10:21 | 30.13861 | 31.43750 | 1831 ft | 182 kts | 355° |
| 2026-04-29 10:22 | 30.15079 | 31.43205 | 2221 ft | 199 kts | 324° |
| 2026-04-29 10:22 | 30.16113 | 31.42112 | 2911 ft | 201 kts | 316° |
| 2026-04-29 10:22 | 30.17089 | 31.40954 | 3694 ft | 203 kts | 314° |
| 2026-04-29 10:22 | 30.17749 | 31.40156 | 4058 ft | 213 kts | 314° |
| 2026-04-29 10:23 | 30.18832 | 31.38884 | 4423 ft | 236 kts | 315° |
| 2026-04-29 10:23 | 30.20071 | 31.37487 | 4749 ft | 258 kts | 316° |
| 2026-04-29 10:23 | 30.21382 | 31.36003 | 5366 ft | 266 kts | 313° |
| 2026-04-29 10:23 | 30.22679 | 31.34461 | 6155 ft | 268 kts | 313° |
| 2026-04-29 10:24 | 30.23972 | 31.32903 | 6931 ft | 269 kts | 313° |
| 2026-04-29 10:24 | 30.25264 | 31.31326 | 7698 ft | 271 kts | 313° |
| 2026-04-29 10:24 | 30.26580 | 31.29735 | 8398 ft | 277 kts | 314° |
| 2026-04-29 10:24 | 30.27939 | 31.28129 | 9129 ft | 281 kts | 313° |
| 2026-04-29 10:25 | 30.29296 | 31.26498 | 9962 ft | 281 kts | 314° |
| 2026-04-29 10:25 | 30.30664 | 31.24854 | 10582 ft | 289 kts | 313° |
| 2026-04-29 10:25 | 30.32083 | 31.23122 | 10984 ft | 305 kts | 314° |
| 2026-04-29 10:25 | 30.33610 | 31.21300 | 11268 ft | 323 kts | 314° |
| 2026-04-29 10:26 | 30.35211 | 31.19404 | 11765 ft | 333 kts | 314° |
| 2026-04-29 10:26 | 30.36836 | 31.17470 | 12453 ft | 336 kts | 314° |
| 2026-04-29 10:26 | 30.38039 | 31.16029 | 12980 ft | 338 kts | 313° |
| 2026-04-29 10:26 | 30.38742 | 31.15194 | 13292 ft | 339 kts | 314° |
| 2026-04-29 10:27 | 30.42077 | 31.11274 | 14642 ft | 343 kts | 314° |
| 2026-04-29 10:27 | 30.43746 | 31.09287 | 15288 ft | 345 kts | 313° |
| 2026-04-29 10:27 | 30.45422 | 31.07283 | 15929 ft | 347 kts | 313° |
| 2026-04-29 10:28 | 30.47109 | 31.05268 | 16558 ft | 349 kts | 313° |
| 2026-04-29 10:28 | 30.48801 | 31.03235 | 17171 ft | 352 kts | 313° |
| 2026-04-29 10:28 | 30.50060 | 31.01718 | 17621 ft | 353 kts | 313° |
| 2026-04-29 10:29 | 30.51461 | 31.00033 | 18110 ft | 355 kts | 313° |
| 2026-04-29 10:29 | 30.53185 | 30.97966 | 18674 ft | 357 kts | 313° |
| 2026-04-29 10:29 | 30.54922 | 30.95894 | 19207 ft | 359 kts | 313° |
| 2026-04-29 10:29 | 30.56661 | 30.93810 | 19725 ft | 360 kts | 313° |
| 2026-04-29 10:30 | 30.58407 | 30.91711 | 20253 ft | 362 kts | 313° |
| 2026-04-29 10:30 | 30.60158 | 30.89609 | 20774 ft | 363 kts | 313° |
| 2026-04-29 10:30 | 30.61916 | 30.87496 | 21301 ft | 365 kts | 313° |
| 2026-04-29 10:30 | 30.63681 | 30.85374 | 21827 ft | 366 kts | 312° |
| 2026-04-29 10:31 | 30.65430 | 30.83267 | 22337 ft | 368 kts | 312° |
| 2026-04-29 10:31 | 30.67210 | 30.81122 | 22848 ft | 369 kts | 312° |
| 2026-04-29 10:31 | 30.68998 | 30.78962 | 23358 ft | 371 kts | 312° |
| 2026-04-29 10:31 | 30.70794 | 30.76796 | 23813 ft | 373 kts | 312° |
| 2026-04-29 10:32 | 30.72596 | 30.74623 | 24231 ft | 374 kts | 312° |
| 2026-04-29 10:32 | 30.74401 | 30.72445 | 24655 ft | 374 kts | 312° |
| 2026-04-29 10:32 | 30.76203 | 30.70262 | 25074 ft | 375 kts | 312° |
| 2026-04-29 10:32 | 30.78014 | 30.68072 | 25490 ft | 376 kts | 312° |
| 2026-04-29 10:33 | 30.79829 | 30.65879 | 25896 ft | 376 kts | 312° |
| 2026-04-29 10:33 | 30.81644 | 30.63685 | 26291 ft | 377 kts | 312° |
| 2026-04-29 10:33 | 30.83463 | 30.61474 | 26671 ft | 379 kts | 312° |
| 2026-04-29 10:33 | 30.85291 | 30.59260 | 27025 ft | 380 kts | 312° |
| 2026-04-29 10:34 | 30.87126 | 30.57039 | 27379 ft | 381 kts | 312° |
| 2026-04-29 10:34 | 30.88962 | 30.54807 | 27743 ft | 382 kts | 312° |
| 2026-04-29 10:34 | 30.90803 | 30.52570 | 28102 ft | 383 kts | 312° |
| 2026-04-29 10:34 | 30.92650 | 30.50332 | 28452 ft | 384 kts | 312° |
| 2026-04-29 10:35 | 30.94501 | 30.48085 | 28795 ft | 384 kts | 312° |
| 2026-04-29 10:35 | 30.96351 | 30.45835 | 29134 ft | 385 kts | 312° |
| 2026-04-29 10:35 | 30.98184 | 30.43604 | 29466 ft | 386 kts | 312° |
| 2026-04-29 10:35 | 31.00046 | 30.41336 | 29786 ft | 387 kts | 312° |
| 2026-04-29 10:36 | 31.01907 | 30.39068 | 30099 ft | 387 kts | 312° |
| 2026-04-29 10:36 | 31.03765 | 30.36791 | 30370 ft | 388 kts | 312° |
| 2026-04-29 10:36 | 31.05634 | 30.34514 | 30632 ft | 388 kts | 312° |
| 2026-04-29 10:36 | 31.07463 | 30.32203 | 30888 ft | 388 kts | 308° |
| 2026-04-29 10:37 | 31.09012 | 30.29633 | 31135 ft | 388 kts | 300° |
| 2026-04-29 10:37 | 31.10144 | 30.26777 | 31374 ft | 389 kts | 291° |
| 2026-04-29 10:37 | 31.10993 | 30.23766 | 31624 ft | 390 kts | 289° |
| 2026-04-29 10:37 | 31.11777 | 30.20733 | 31861 ft | 391 kts | 289° |
| 2026-04-29 10:38 | 31.12565 | 30.17690 | 32099 ft | 391 kts | 289° |
| 2026-04-29 10:38 | 31.13368 | 30.14656 | 32343 ft | 391 kts | 289° |
| 2026-04-29 10:38 | 31.14182 | 30.11628 | 32575 ft | 391 kts | 289° |
| 2026-04-29 10:38 | 31.15003 | 30.08600 | 32829 ft | 391 kts | 289° |
| 2026-04-29 10:39 | 31.15820 | 30.05577 | 33084 ft | 390 kts | 289° |
| 2026-04-29 10:39 | 31.16639 | 30.02554 | 33310 ft | 390 kts | 289° |
| 2026-04-29 10:39 | 31.17596 | 29.99595 | 33536 ft | 389 kts | 296° |
| 2026-04-29 10:39 | 31.18959 | 29.96860 | 33715 ft | 390 kts | 305° |
| 2026-04-29 10:40 | 31.20728 | 29.94459 | 33895 ft | 392 kts | 314° |
| 2026-04-29 10:40 | 31.22878 | 29.92485 | 34057 ft | 396 kts | 323° |
| 2026-04-29 10:40 | 31.25291 | 29.90896 | 34132 ft | 400 kts | 328° |
| 2026-04-29 10:41 | 31.30228 | 29.87898 | 34101 ft | 399 kts | 328° |
| 2026-04-29 10:41 | 31.35140 | 29.84851 | 34079 ft | 399 kts | 327° |
| 2026-04-29 10:42 | 31.40040 | 29.81786 | 34080 ft | 399 kts | 327° |
| 2026-04-29 10:42 | 31.44928 | 29.78723 | 34073 ft | 398 kts | 327° |
| 2026-04-29 10:43 | 31.49814 | 29.75654 | 34068 ft | 398 kts | 327° |
| 2026-04-29 10:43 | 31.54694 | 29.72584 | 34084 ft | 398 kts | 327° |
| 2026-04-29 10:44 | 31.59578 | 29.69511 | 34077 ft | 398 kts | 327° |
| 2026-04-29 10:44 | 31.64460 | 29.66437 | 34075 ft | 398 kts | 327° |
| 2026-04-29 10:45 | 31.69341 | 29.63361 | 34075 ft | 398 kts | 327° |
| 2026-04-29 10:45 | 31.74217 | 29.60278 | 34074 ft | 398 kts | 327° |
| 2026-04-29 10:46 | 31.79098 | 29.57199 | 34074 ft | 398 kts | 327° |
| 2026-04-29 10:46 | 31.83974 | 29.54109 | 34098 ft | 398 kts | 327° |
| 2026-04-29 10:47 | 31.88839 | 29.51027 | 34079 ft | 397 kts | 327° |
| 2026-04-29 10:47 | 31.93699 | 29.47944 | 34077 ft | 397 kts | 327° |
| 2026-04-29 10:48 | 31.98523 | 29.44875 | 34077 ft | 397 kts | 327° |
| 2026-04-29 10:48 | 32.03386 | 29.41783 | 34078 ft | 397 kts | 327° |
| 2026-04-29 10:49 | 32.08244 | 29.38693 | 34073 ft | 397 kts | 327° |
| 2026-04-29 10:49 | 32.13102 | 29.35591 | 34077 ft | 398 kts | 327° |
| 2026-04-29 10:50 | 32.17973 | 29.32478 | 34075 ft | 398 kts | 327° |
| 2026-04-29 10:50 | 32.22841 | 29.29367 | 34072 ft | 398 kts | 327° |
| 2026-04-29 10:51 | 32.27708 | 29.26252 | 34068 ft | 398 kts | 327° |
| 2026-04-29 10:51 | 32.32570 | 29.23131 | 34070 ft | 397 kts | 327° |
| 2026-04-29 10:52 | 32.37414 | 29.20020 | 34067 ft | 396 kts | 327° |
| 2026-04-29 10:52 | 32.42258 | 29.16909 | 34068 ft | 396 kts | 327° |
| 2026-04-29 10:53 | 32.47099 | 29.13791 | 34070 ft | 396 kts | 327° |
| 2026-04-29 10:53 | 32.51943 | 29.10665 | 34071 ft | 396 kts | 327° |
| 2026-04-29 10:54 | 32.56781 | 29.07541 | 34068 ft | 396 kts | 326° |
| 2026-04-29 10:54 | 32.61622 | 29.04414 | 34068 ft | 396 kts | 326° |
| 2026-04-29 10:55 | 32.66459 | 29.01281 | 34074 ft | 396 kts | 326° |
| 2026-04-29 10:55 | 32.71283 | 28.98157 | 34070 ft | 398 kts | 326° |
| 2026-04-29 10:56 | 32.76144 | 28.95005 | 34072 ft | 397 kts | 326° |
| 2026-04-29 10:56 | 32.80960 | 28.91873 | 34071 ft | 394 kts | 326° |
| 2026-04-29 10:57 | 32.85764 | 28.88746 | 34070 ft | 394 kts | 326° |
| 2026-04-29 10:57 | 32.90570 | 28.85615 | 34073 ft | 394 kts | 326° |
| 2026-04-29 10:58 | 32.95375 | 28.82481 | 34065 ft | 394 kts | 326° |
| 2026-04-29 10:58 | 33.00223 | 28.79314 | 34070 ft | 401 kts | 326° |
| 2026-04-29 10:59 | 33.05118 | 28.76117 | 34068 ft | 401 kts | 327° |
| 2026-04-29 10:59 | 33.10019 | 28.72920 | 34067 ft | 401 kts | 326° |
| 2026-04-29 11:00 | 33.14918 | 28.69713 | 34067 ft | 400 kts | 326° |
| 2026-04-29 11:00 | 33.19768 | 28.66533 | 34068 ft | 401 kts | 326° |
| 2026-04-29 11:01 | 33.24614 | 28.63351 | 34085 ft | 397 kts | 326° |
| 2026-04-29 11:01 | 33.29512 | 28.60127 | 34071 ft | 404 kts | 327° |
| 2026-04-29 11:02 | 33.34444 | 28.56883 | 34068 ft | 404 kts | 327° |
| 2026-04-29 11:02 | 33.39377 | 28.53634 | 34069 ft | 404 kts | 327° |
| 2026-04-29 11:03 | 33.44310 | 28.50380 | 34066 ft | 404 kts | 326° |
| 2026-04-29 11:03 | 33.49200 | 28.47154 | 34058 ft | 404 kts | 326° |
| 2026-04-29 11:04 | 33.54137 | 28.43891 | 34070 ft | 409 kts | 327° |
| 2026-04-29 11:04 | 33.59120 | 28.40582 | 34064 ft | 409 kts | 327° |
| 2026-04-29 11:05 | 33.64111 | 28.37288 | 34061 ft | 409 kts | 327° |
| 2026-04-29 11:05 | 33.69086 | 28.33993 | 34062 ft | 408 kts | 327° |
| 2026-04-29 11:06 | 33.74057 | 28.30694 | 34058 ft | 408 kts | 327° |
| 2026-04-29 11:06 | 33.79028 | 28.27392 | 34058 ft | 408 kts | 327° |
| 2026-04-29 11:07 | 33.83259 | 28.24786 | 34064 ft | 414 kts | 329° |
| 2026-04-29 11:07 | 33.88429 | 28.21701 | 34059 ft | 414 kts | 329° |
| 2026-04-29 11:08 | 33.93585 | 28.18604 | 34062 ft | 414 kts | 329° |
| 2026-04-29 11:08 | 33.98722 | 28.15450 | 34061 ft | 414 kts | 329° |
| 2026-04-29 11:09 | 34.03867 | 28.12323 | 34055 ft | 414 kts | 329° |
| 2026-04-29 11:09 | 34.08996 | 28.09233 | 34067 ft | 417 kts | 329° |
| 2026-04-29 11:10 | 34.14190 | 28.06100 | 34056 ft | 417 kts | 329° |
| 2026-04-29 11:10 | 34.19371 | 28.02969 | 34054 ft | 416 kts | 329° |
| 2026-04-29 11:11 | 34.24551 | 27.99834 | 34051 ft | 416 kts | 329° |
| 2026-04-29 11:11 | 34.29727 | 27.96699 | 34046 ft | 416 kts | 329° |
| 2026-04-29 11:12 | 34.34927 | 27.93615 | 34056 ft | 420 kts | 334° |
| 2026-04-29 11:12 | 34.40395 | 27.91046 | 34062 ft | 420 kts | 333° |
| 2026-04-29 11:13 | 34.45677 | 27.88056 | 34047 ft | 419 kts | 330° |
| 2026-04-29 11:13 | 34.50891 | 27.84906 | 34046 ft | 418 kts | 329° |
| 2026-04-29 11:14 | 34.56055 | 27.81766 | 34054 ft | 418 kts | 329° |
| 2026-04-29 11:14 | 34.61291 | 27.78580 | 34066 ft | 419 kts | 329° |
| 2026-04-29 11:15 | 34.66486 | 27.75415 | 34040 ft | 421 kts | 330° |
| 2026-04-29 11:15 | 34.71723 | 27.72221 | 34041 ft | 421 kts | 329° |
| 2026-04-29 11:16 | 34.76896 | 27.68904 | 34039 ft | 418 kts | 323° |
| 2026-04-29 11:16 | 34.81801 | 27.65086 | 34037 ft | 419 kts | 327° |
| 2026-04-29 11:17 | 34.86952 | 27.61716 | 34040 ft | 421 kts | 329° |
| 2026-04-29 11:17 | 34.92205 | 27.58461 | 34041 ft | 425 kts | 330° |
| 2026-04-29 11:18 | 34.97493 | 27.55202 | 34037 ft | 426 kts | 330° |
| 2026-04-29 11:18 | 35.02776 | 27.51936 | 34035 ft | 426 kts | 329° |
| 2026-04-29 11:19 | 35.08063 | 27.48665 | 34036 ft | 426 kts | 330° |
| 2026-04-29 11:19 | 35.13309 | 27.45414 | 34037 ft | 424 kts | 329° |
| 2026-04-29 11:20 | 35.18562 | 27.42144 | 34030 ft | 424 kts | 329° |
| 2026-04-29 11:20 | 35.23817 | 27.38876 | 34032 ft | 424 kts | 329° |
| 2026-04-29 11:21 | 35.29072 | 27.35594 | 34033 ft | 424 kts | 329° |
| 2026-04-29 11:21 | 35.34332 | 27.32313 | 34033 ft | 424 kts | 329° |
| 2026-04-29 11:22 | 35.39588 | 27.29036 | 34032 ft | 424 kts | 329° |
| 2026-04-29 11:22 | 35.44861 | 27.25737 | 34038 ft | 427 kts | 330° |
| 2026-04-29 11:23 | 35.50161 | 27.22417 | 34039 ft | 427 kts | 330° |
| 2026-04-29 11:23 | 35.55455 | 27.19096 | 34041 ft | 427 kts | 330° |
| 2026-04-29 11:24 | 35.60741 | 27.15774 | 34032 ft | 425 kts | 329° |
| 2026-04-29 11:24 | 35.65997 | 27.12459 | 34038 ft | 425 kts | 330° |
| 2026-04-29 11:25 | 35.71246 | 27.09155 | 34044 ft | 428 kts | 330° |
| 2026-04-29 11:25 | 35.76552 | 27.05811 | 34036 ft | 428 kts | 330° |
| 2026-04-29 11:26 | 35.84504 | 27.00773 | 34035 ft | 428 kts | 330° |